Time;durP1;ratioP1;P1;durP2;ratioP2;P2;SDS_P1;SDS_P2;PMS_P1;PMS_P2;Temp;Humidity;BMP_temperature;BMP_pressure;BME280_temperature;BME280_humidity;BME280_pressure;Samples;Min_cycle;Max_cycle;Signal;HPM_P1;HPM_P2
2023/08/22 00:00:25;;;;;;;0.00;0.00;;;16.90;99.90;;;;;;5095553;28;20941;-86
2023/08/22 00:02:50;;;;;;;0.00;0.00;;;16.80;99.90;;;;;;5100622;27;20192;-86
2023/08/22 00:05:16;;;;;;;0.00;0.00;;;16.90;99.90;;;;;;5124109;27;20258;-86
2023/08/22 00:07:42;;;;;;;0.00;0.00;;;16.70;99.90;;;;;;5110345;28;20196;-86
2023/08/22 00:10:09;;;;;;;0.00;0.00;;;16.90;99.90;;;;;;5112562;27;20283;-86
2023/08/22 00:12:34;;;;;;;0.00;0.00;;;16.70;99.90;;;;;;5114630;27;20481;-86
2023/08/22 00:15:00;;;;;;;0.00;0.00;;;16.70;99.90;;;;;;5108469;27;20803;-85
2023/08/22 00:17:26;;;;;;;0.00;0.00;;;16.50;99.90;;;;;;5123919;27;20264;-86
2023/08/22 00:19:52;;;;;;;0.00;0.00;;;16.50;99.90;;;;;;5116405;27;20525;-85
2023/08/22 00:22:17;;;;;;;0.00;0.00;;;16.50;99.90;;;;;;5109128;28;20708;-86
2023/08/22 00:24:43;;;;;;;0.00;0.00;;;16.70;99.90;;;;;;5106221;28;20437;-86
2023/08/22 00:27:11;;;;;;;0.00;0.00;;;16.70;99.90;;;;;;5109320;28;20187;-86
2023/08/22 00:29:37;;;;;;;0.00;0.00;;;16.70;99.90;;;;;;5121871;27;20478;-86
2023/08/22 00:32:03;;;;;;;0.00;0.00;;;16.50;99.90;;;;;;5104219;28;20492;-87
2023/08/22 00:34:28;;;;;;;0.00;0.00;;;16.50;99.90;;;;;;5093729;28;20180;-86
2023/08/22 00:36:54;;;;;;;0.00;0.00;;;16.70;99.90;;;;;;5109140;28;20177;-86
2023/08/22 00:39:19;;;;;;;0.00;0.00;;;16.80;99.90;;;;;;5108094;28;20184;-86
2023/08/22 00:41:45;;;;;;;0.00;0.00;;;16.90;99.90;;;;;;5109837;28;20184;-86
2023/08/22 00:44:10;;;;;;;0.00;0.00;;;17.00;99.90;;;;;;5100454;28;20185;-86
2023/08/22 00:46:36;;;;;;;0.00;0.00;;;17.00;99.90;;;;;;5094091;28;20192;-86
2023/08/22 00:49:04;;;;;;;0.00;0.00;;;17.00;99.90;;;;;;5111356;27;20724;-86
2023/08/22 00:51:30;;;;;;;0.00;0.00;;;17.00;99.90;;;;;;5109754;28;20177;-86
2023/08/22 00:53:56;;;;;;;0.00;0.00;;;16.90;99.90;;;;;;5110362;28;20461;-86
2023/08/22 00:56:22;;;;;;;0.00;0.00;;;16.60;99.90;;;;;;5109406;28;20438;-86
2023/08/22 00:58:48;;;;;;;0.00;0.00;;;16.60;99.90;;;;;;5108057;28;20196;-86
2023/08/22 01:01:14;;;;;;;0.00;0.00;;;16.70;99.90;;;;;;5099874;28;20521;-87
2023/08/22 01:03:40;;;;;;;0.00;0.00;;;16.70;99.90;;;;;;5112665;28;20522;-86
2023/08/22 01:06:16;;;;;;;0.00;0.00;;;16.60;99.90;;;;;;5122453;28;21147;-85
2023/08/22 01:08:48;;;;;;;0.00;0.00;;;16.70;99.90;;;;;;5106986;28;20540;-86
2023/08/22 01:11:25;;;;;;;0.00;0.00;;;16.70;99.90;;;;;;5106945;28;20441;-85
2023/08/22 01:13:54;;;;;;;0.00;0.00;;;16.90;99.90;;;;;;5108141;28;20444;-87
2023/08/22 01:16:20;;;;;;;0.00;0.00;;;17.10;99.90;;;;;;5115822;28;20473;-87
2023/08/22 01:18:46;;;;;;;0.00;0.00;;;17.00;99.90;;;;;;5113417;28;20811;-86
2023/08/22 01:21:20;;;;;;;0.00;0.00;;;17.10;99.90;;;;;;5110601;28;20194;-86
2023/08/22 01:23:45;;;;;;;0.00;0.00;;;17.10;99.90;;;;;;5090702;28;20431;-86
2023/08/22 01:26:11;;;;;;;0.00;0.00;;;17.10;99.90;;;;;;5105010;28;20518;-86
2023/08/22 01:28:49;;;;;;;0.00;0.00;;;17.00;99.90;;;;;;5109728;28;20184;-86
2023/08/22 01:31:20;;;;;;;0.00;0.00;;;16.90;99.90;;;;;;5102425;28;20192;-86
2023/08/22 01:33:56;;;;;;;0.00;0.00;;;17.00;99.90;;;;;;5097074;28;20447;-85
2023/08/22 01:36:24;;;;;;;0.00;0.00;;;17.00;99.90;;;;;;5105005;28;20433;-86
2023/08/22 01:38:51;;;;;;;0.00;0.00;;;17.10;99.90;;;;;;5108382;28;21323;-86
2023/08/22 01:41:17;;;;;;;0.00;0.00;;;17.00;99.90;;;;;;5109547;28;20445;-86
2023/08/22 01:43:43;;;;;;;0.00;0.00;;;17.10;99.90;;;;;;5109359;28;20448;-86
2023/08/22 01:46:08;;;;;;;0.00;0.00;;;17.10;99.90;;;;;;5106178;28;20529;-86
2023/08/22 01:48:35;;;;;;;0.00;0.00;;;17.10;99.90;;;;;;5108470;28;20197;-86
2023/08/22 01:51:00;;;;;;;0.00;0.00;;;17.00;99.90;;;;;;5103501;28;20275;-86
2023/08/22 01:53:26;;;;;;;0.00;0.00;;;17.00;99.90;;;;;;5108212;28;21155;-86
2023/08/22 01:55:52;;;;;;;0.00;0.00;;;16.90;99.90;;;;;;5109927;28;20436;-86
2023/08/22 01:58:17;;;;;;;0.00;0.00;;;16.90;99.90;;;;;;5108901;28;20217;-86
2023/08/22 02:00:43;;;;;;;0.00;0.00;;;16.90;99.90;;;;;;5103632;28;20187;-86
2023/08/22 02:03:08;;;;;;;0.00;0.00;;;16.70;99.90;;;;;;5087853;28;20192;-86
2023/08/22 02:05:34;;;;;;;0.00;0.00;;;16.70;99.90;;;;;;5090441;28;20177;-86
2023/08/22 02:08:00;;;;;;;0.00;0.00;;;16.60;99.90;;;;;;5098009;27;20188;-86
2023/08/22 02:10:25;;;;;;;0.00;0.00;;;16.60;99.90;;;;;;5114426;27;20589;-86
2023/08/22 02:12:51;;;;;;;0.00;0.00;;;16.50;99.90;;;;;;5094305;28;20508;-86
2023/08/22 02:15:16;;;;;;;0.00;0.00;;;16.60;99.90;;;;;;5108128;28;20188;-86
2023/08/22 02:17:42;;;;;;;0.00;0.00;;;16.50;99.90;;;;;;5119476;27;20221;-86
2023/08/22 02:20:08;;;;;;;0.00;0.00;;;16.40;99.90;;;;;;5094136;27;20184;-85
2023/08/22 02:22:40;;;;;;;0.00;0.00;;;16.30;99.90;;;;;;5111129;27;20557;-86
2023/08/22 02:25:09;;;;;;;0.00;0.00;;;16.30;99.90;;;;;;5122740;27;20254;-86
2023/08/22 02:27:37;;;;;;;0.00;0.00;;;16.40;99.90;;;;;;5111045;28;20446;-86
2023/08/22 02:30:04;;;;;;;0.00;0.00;;;16.60;99.90;;;;;;5108759;28;20470;-86
2023/08/22 02:32:30;;;;;;;0.00;0.00;;;16.60;99.90;;;;;;5104242;28;20466;-86
2023/08/22 02:34:55;;;;;;;0.00;0.00;;;16.60;99.90;;;;;;5113185;28;20980;-86
2023/08/22 02:37:21;;;;;;;0.00;0.00;;;16.40;99.90;;;;;;5094262;28;20674;-86
2023/08/22 02:39:46;;;;;;;0.00;0.00;;;16.40;99.90;;;;;;5090754;28;20188;-85
2023/08/22 02:42:12;;;;;;;0.00;0.00;;;16.50;99.90;;;;;;5109862;28;20193;-86
2023/08/22 02:44:37;;;;;;;0.00;0.00;;;16.60;99.90;;;;;;5112232;28;20265;-86
2023/08/22 02:47:03;;;;;;;0.00;0.00;;;16.40;99.90;;;;;;5108439;27;20196;-86
2023/08/22 02:49:28;;;;;;;0.00;0.00;;;16.60;99.90;;;;;;5091183;28;20553;-86
2023/08/22 02:51:54;;;;;;;0.00;0.00;;;16.60;99.90;;;;;;5091847;28;20241;-86
2023/08/22 02:54:19;;;;;;;0.00;0.00;;;16.60;99.90;;;;;;5111011;27;20195;-86
2023/08/22 02:56:45;;;;;;;0.00;0.00;;;16.60;99.90;;;;;;5105115;28;20196;-86
2023/08/22 02:59:10;;;;;;;0.00;0.00;;;16.60;99.90;;;;;;5091698;28;20231;-86
2023/08/22 03:01:36;;;;;;;0.00;0.00;;;16.50;99.90;;;;;;5120808;27;20621;-86
2023/08/22 03:04:01;;;;;;;0.00;0.00;;;16.60;99.90;;;;;;5118781;27;20196;-86
2023/08/22 03:06:27;;;;;;;0.00;0.00;;;16.50;99.90;;;;;;5091704;28;20180;-87
2023/08/22 03:08:53;;;;;;;0.00;0.00;;;16.60;99.90;;;;;;5089660;28;20208;-87
2023/08/22 03:11:18;;;;;;;0.00;0.00;;;16.70;99.90;;;;;;5108316;27;20474;-85
2023/08/22 03:13:44;;;;;;;0.00;0.00;;;16.80;99.90;;;;;;5097985;27;20221;-86
2023/08/22 03:16:09;;;;;;;0.00;0.00;;;16.80;99.90;;;;;;5078825;28;20172;-86
2023/08/22 03:18:35;;;;;;;0.00;0.00;;;16.80;99.90;;;;;;5090886;28;20206;-86
2023/08/22 03:21:00;;;;;;;0.00;0.00;;;16.60;99.90;;;;;;5093002;28;20184;-86
2023/08/22 03:23:26;;;;;;;0.00;0.00;;;16.70;99.90;;;;;;5112234;28;20184;-86
2023/08/22 03:25:59;;;;;;;0.00;0.00;;;16.70;99.90;;;;;;5110630;28;20202;-86
2023/08/22 03:28:25;;;;;;;0.00;0.00;;;16.70;99.90;;;;;;5107974;28;20215;-85
2023/08/22 03:30:55;;;;;;;0.00;0.00;;;16.80;99.90;;;;;;5108319;27;20484;-86
2023/08/22 03:33:21;;;;;;;0.00;0.00;;;16.60;99.90;;;;;;5128879;27;20583;-86
2023/08/22 03:35:47;;;;;;;0.00;0.00;;;16.50;99.90;;;;;;5107466;28;20524;-86
2023/08/22 03:38:12;;;;;;;0.00;0.00;;;16.50;99.90;;;;;;5098956;28;20927;-86
2023/08/22 03:40:38;;;;;;;0.00;0.00;;;16.50;99.90;;;;;;5089337;28;20195;-86
2023/08/22 03:43:03;;;;;;;0.00;0.00;;;16.40;99.90;;;;;;5103504;27;20193;-86
2023/08/22 03:45:29;;;;;;;0.00;0.00;;;16.40;99.90;;;;;;5111366;27;20184;-85
2023/08/22 03:47:54;;;;;;;0.00;0.00;;;16.50;99.90;;;;;;5119698;27;20659;-86
2023/08/22 03:50:20;;;;;;;0.00;0.00;;;16.60;99.90;;;;;;5110835;28;20172;-86
2023/08/22 03:52:45;;;;;;;0.00;0.00;;;16.60;99.90;;;;;;5093315;28;20231;-86
2023/08/22 03:55:11;;;;;;;0.00;0.00;;;16.60;99.90;;;;;;5106553;28;20187;-86
2023/08/22 03:57:36;;;;;;;0.00;0.00;;;16.60;99.90;;;;;;5106490;28;21057;-87
2023/08/22 04:00:04;;;;;;;0.00;0.00;;;16.50;99.90;;;;;;5090807;28;20180;-87
2023/08/22 04:02:29;;;;;;;0.00;0.00;;;16.60;99.90;;;;;;5095781;28;20250;-87
2023/08/22 04:04:56;;;;;;;0.00;0.00;;;16.60;99.90;;;;;;5084544;28;20454;-88
2023/08/22 04:07:21;;;;;;;0.00;0.00;;;16.60;99.90;;;;;;5108136;28;20168;-86
2023/08/22 04:09:47;;;;;;;0.00;0.00;;;16.70;99.90;;;;;;5109509;28;20452;-86
2023/08/22 04:12:12;;;;;;;0.00;0.00;;;16.70;99.90;;;;;;5110071;28;20249;-86
2023/08/22 04:14:38;;;;;;;0.00;0.00;;;16.60;99.90;;;;;;5108359;28;20216;-87
2023/08/22 04:17:03;;;;;;;0.00;0.00;;;16.60;99.90;;;;;;5108525;28;20210;-86
2023/08/22 04:19:29;;;;;;;0.00;0.00;;;16.60;99.90;;;;;;5094297;28;20180;-87
2023/08/22 04:21:54;;;;;;;0.00;0.00;;;16.60;99.90;;;;;;5110560;28;20603;-85
2023/08/22 04:24:20;;;;;;;0.00;0.00;;;16.50;99.90;;;;;;5106967;28;20824;-86
2023/08/22 04:26:45;;;;;;;0.00;0.00;;;16.50;99.90;;;;;;5104448;27;20932;-87
2023/08/22 04:29:11;;;;;;;0.00;0.00;;;16.50;99.90;;;;;;5107872;27;20318;-86
2023/08/22 04:31:36;;;;;;;0.00;0.00;;;16.50;99.90;;;;;;5086816;28;20184;-86
2023/08/22 04:34:02;;;;;;;0.00;0.00;;;16.40;99.90;;;;;;5108577;28;20660;-87
2023/08/22 04:36:28;;;;;;;0.00;0.00;;;16.40;99.90;;;;;;5088378;28;20189;-86
2023/08/22 04:38:53;;;;;;;0.00;0.00;;;16.40;99.90;;;;;;5108836;27;21021;-86
2023/08/22 04:41:19;;;;;;;0.00;0.00;;;16.30;99.90;;;;;;5123406;27;20714;-86
2023/08/22 04:43:44;;;;;;;0.00;0.00;;;16.30;99.90;;;;;;5110879;28;20195;-86
2023/08/22 04:46:11;;;;;;;0.00;0.00;;;16.30;99.90;;;;;;5113565;27;20547;-87
2023/08/22 04:48:37;;;;;;;0.00;0.00;;;16.40;99.90;;;;;;5123447;27;20275;-86
2023/08/22 04:51:02;;;;;;;0.00;0.00;;;16.40;99.90;;;;;;5107574;28;20545;-86
2023/08/22 04:53:28;;;;;;;0.00;0.00;;;16.40;99.90;;;;;;5099128;28;20969;-86
2023/08/22 04:55:54;;;;;;;0.00;0.00;;;16.40;99.90;;;;;;5104754;28;20240;-86
2023/08/22 04:58:19;;;;;;;0.00;0.00;;;16.30;99.90;;;;;;5103771;28;20249;-85
2023/08/22 05:00:45;;;;;;;0.00;0.00;;;16.30;99.90;;;;;;5105314;28;20276;-85
2023/08/22 05:03:10;;;;;;;0.00;0.00;;;16.20;99.90;;;;;;5102199;28;20241;-86
2023/08/22 05:05:36;;;;;;;0.00;0.00;;;16.30;99.90;;;;;;5103000;28;20218;-85
2023/08/22 05:08:02;;;;;;;0.00;0.00;;;16.40;99.90;;;;;;5103330;28;20213;-85
2023/08/22 05:10:27;;;;;;;0.00;0.00;;;16.40;99.90;;;;;;5101073;28;20172;-85
2023/08/22 05:12:53;;;;;;;0.00;0.00;;;16.50;99.90;;;;;;5102848;28;20492;-86
2023/08/22 05:15:18;;;;;;;0.00;0.00;;;16.50;99.90;;;;;;5107787;28;20237;-84
2023/08/22 05:17:44;;;;;;;0.00;0.00;;;16.50;99.90;;;;;;5104431;28;20185;-85
2023/08/22 05:20:13;;;;;;;0.00;0.00;;;16.50;99.90;;;;;;5087998;28;20636;-85
2023/08/22 05:22:38;;;;;;;0.00;0.00;;;16.40;99.90;;;;;;5118820;28;20192;-85
2023/08/22 05:25:05;;;;;;;0.00;0.00;;;16.40;99.90;;;;;;5110629;28;20422;-84
2023/08/22 05:27:31;;;;;;;0.00;0.00;;;16.40;99.90;;;;;;5107282;28;20528;-86
2023/08/22 05:29:56;;;;;;;0.00;0.00;;;16.40;99.90;;;;;;5105766;28;20503;-84
2023/08/22 05:32:22;;;;;;;0.00;0.00;;;16.40;99.90;;;;;;5103262;28;20216;-84
2023/08/22 05:34:47;;;;;;;0.00;0.00;;;16.50;99.90;;;;;;5104572;28;20284;-84
2023/08/22 05:37:13;;;;;;;0.00;0.00;;;16.50;99.90;;;;;;5100663;28;20641;-84
2023/08/22 05:39:38;;;;;;;0.00;0.00;;;16.70;99.90;;;;;;5115975;28;20184;-83
2023/08/22 05:42:04;;;;;;;0.00;0.00;;;16.80;99.90;;;;;;5115492;27;20623;-83
2023/08/22 05:44:32;;;;;;;0.00;0.00;;;16.80;99.90;;;;;;5092041;27;20183;-83
2023/08/22 05:46:57;;;;;;;0.00;0.00;;;16.80;99.90;;;;;;5109708;27;21681;-84
2023/08/22 05:49:23;;;;;;;0.00;0.00;;;16.90;99.90;;;;;;5123810;27;20441;-83
2023/08/22 05:51:49;;;;;;;0.00;0.00;;;16.90;99.90;;;;;;5109054;28;20212;-84
2023/08/22 05:54:14;;;;;;;0.00;0.00;;;16.90;99.90;;;;;;5108548;28;20191;-84
2023/08/22 05:56:40;;;;;;;0.00;0.00;;;17.00;99.90;;;;;;5110857;28;20183;-83
2023/08/22 05:59:05;;;;;;;0.00;0.00;;;17.10;99.90;;;;;;5110064;28;20187;-84
2023/08/22 06:01:31;;;;;;;0.00;0.00;;;17.20;99.90;;;;;;5109544;28;20204;-84
2023/08/22 06:03:57;;;;;;;0.00;0.00;;;17.40;99.90;;;;;;5101986;28;20578;-84
2023/08/22 06:06:22;;;;;;;0.00;0.00;;;17.50;99.90;;;;;;5109482;27;20322;-83
2023/08/22 06:08:48;;;;;;;0.00;0.00;;;17.60;99.90;;;;;;5105760;27;20249;-84
2023/08/22 06:11:13;;;;;;;0.00;0.00;;;17.70;99.90;;;;;;5112063;28;20639;-85
2023/08/22 06:13:39;;;;;;;0.00;0.00;;;17.70;99.90;;;;;;5105420;28;20576;-85
2023/08/22 06:16:04;;;;;;;0.00;0.00;;;17.60;99.90;;;;;;5110325;28;20194;-85
2023/08/22 06:18:30;;;;;;;0.00;0.00;;;17.70;99.90;;;;;;5109053;28;20600;-84
2023/08/22 06:21:02;;;;;;;0.00;0.00;;;17.70;99.90;;;;;;5106848;28;20259;-84
2023/08/22 06:23:28;;;;;;;0.00;0.00;;;17.70;99.90;;;;;;5112223;28;20187;-84
2023/08/22 06:25:54;;;;;;;0.00;0.00;;;17.70;99.90;;;;;;5110929;27;20440;-85
2023/08/22 06:28:19;;;;;;;0.00;0.00;;;17.70;99.90;;;;;;5107593;28;20188;-84
2023/08/22 06:30:45;;;;;;;0.00;0.00;;;17.80;99.90;;;;;;5113939;27;20984;-86
2023/08/22 06:33:10;;;;;;;0.00;0.00;;;17.70;99.90;;;;;;5110691;28;20217;-86
2023/08/22 06:35:36;;;;;;;0.00;0.00;;;17.80;99.90;;;;;;5106042;27;20284;-86
2023/08/22 06:38:01;;;;;;;0.00;0.00;;;17.80;99.90;;;;;;5100994;27;20649;-87
2023/08/22 06:40:27;;;;;;;0.00;0.00;;;18.00;99.90;;;;;;5108623;27;20184;-86
2023/08/22 06:42:52;;;;;;;0.00;0.00;;;18.10;99.90;;;;;;5104373;28;20691;-87
2023/08/22 06:45:18;;;;;;;0.00;0.00;;;18.20;99.90;;;;;;5087879;28;20184;-85
2023/08/22 06:47:44;;;;;;;0.00;0.00;;;18.30;99.90;;;;;;5104042;28;20249;-86
2023/08/22 06:50:09;;;;;;;0.00;0.00;;;18.30;99.90;;;;;;5105780;28;20186;-86
2023/08/22 06:52:35;;;;;;;0.00;0.00;;;18.30;99.90;;;;;;5082980;28;20227;-86
2023/08/22 06:55:02;;;;;;;0.00;0.00;;;18.40;99.90;;;;;;5105746;28;20323;-86
2023/08/22 06:57:27;;;;;;;0.00;0.00;;;18.50;99.90;;;;;;5080593;28;20522;-88
2023/08/22 06:59:53;;;;;;;0.00;0.00;;;18.60;99.90;;;;;;5083323;28;21107;-87
2023/08/22 07:02:18;;;;;;;0.00;0.00;;;18.60;99.90;;;;;;5108474;28;20184;-87
2023/08/22 07:04:44;;;;;;;0.00;0.00;;;18.60;99.90;;;;;;5105488;28;20195;-88
2023/08/22 07:07:09;;;;;;;0.00;0.00;;;18.80;99.90;;;;;;5109793;27;20249;-88
2023/08/22 07:09:35;;;;;;;0.00;0.00;;;18.90;99.90;;;;;;5109772;27;20179;-85
2023/08/22 07:12:01;;;;;;;0.00;0.00;;;18.90;99.90;;;;;;5106053;28;20271;-90
2023/08/22 07:14:26;;;;;;;0.00;0.00;;;18.80;99.90;;;;;;5124441;27;20506;-88
2023/08/22 07:16:52;;;;;;;0.00;0.00;;;19.00;99.90;;;;;;5098905;28;20192;-86
2023/08/22 07:19:17;;;;;;;0.00;0.00;;;19.10;99.90;;;;;;5111185;28;20242;-88
2023/08/22 07:21:43;;;;;;;0.00;0.00;;;19.10;99.90;;;;;;5128553;27;20256;-89
2023/08/22 07:24:08;;;;;;;0.00;0.00;;;19.30;99.90;;;;;;5107540;27;20262;-89
2023/08/22 07:26:34;;;;;;;0.00;0.00;;;19.30;99.90;;;;;;5103488;28;20184;-88
2023/08/22 07:28:59;;;;;;;0.00;0.00;;;19.30;99.90;;;;;;5111456;28;20610;-87
2023/08/22 07:31:25;;;;;;;0.00;0.00;;;19.50;99.90;;;;;;5112678;28;20181;-89
2023/08/22 07:33:50;;;;;;;0.00;0.00;;;19.60;99.90;;;;;;5111343;28;20231;-89
2023/08/22 07:36:17;;;;;;;0.00;0.00;;;19.60;99.90;;;;;;5110868;28;20183;-90
2023/08/22 07:38:43;;;;;;;0.00;0.00;;;19.70;99.90;;;;;;5112913;28;20181;-88
2023/08/22 07:41:10;;;;;;;0.00;0.00;;;19.70;99.90;;;;;;5117263;27;20449;-88
2023/08/22 07:43:35;;;;;;;0.00;0.00;;;19.70;99.90;;;;;;5090478;28;20191;-88
2023/08/22 07:46:01;;;;;;;0.00;0.00;;;19.90;99.90;;;;;;5092360;28;20446;-89
2023/08/22 07:48:26;;;;;;;0.00;0.00;;;20.10;99.90;;;;;;5108715;28;20558;-88
2023/08/22 07:50:54;;;;;;;0.00;0.00;;;20.20;99.90;;;;;;5110285;28;20204;-89
2023/08/22 07:53:20;;;;;;;0.00;0.00;;;20.20;99.90;;;;;;5110218;28;20698;-89
2023/08/22 07:55:48;;;;;;;0.00;0.00;;;20.30;99.90;;;;;;5110866;28;20517;-90
2023/08/22 07:58:15;;;;;;;0.00;0.00;;;20.50;99.90;;;;;;5109946;27;20673;-88
2023/08/22 08:00:41;;;;;;;0.00;0.00;;;20.60;99.90;;;;;;5112732;27;20442;-89
2023/08/22 08:03:07;;;;;;;0.00;0.00;;;20.70;99.90;;;;;;5111174;27;20745;-88
2023/08/22 08:05:33;;;;;;;0.00;0.00;;;20.70;99.90;;;;;;5104873;28;20438;-90
2023/08/22 08:07:59;;;;;;;0.00;0.00;;;21.00;99.90;;;;;;5104821;28;20207;-89
2023/08/22 08:10:24;;;;;;;0.00;0.00;;;21.00;99.90;;;;;;5110016;28;20475;-89
2023/08/22 08:12:50;;;;;;;0.00;0.00;;;20.80;99.90;;;;;;5108728;27;20311;-89
2023/08/22 08:15:15;;;;;;;0.00;0.00;;;20.90;99.90;;;;;;5109163;27;20189;-90
2023/08/22 08:17:41;;;;;;;0.00;0.00;;;21.20;99.90;;;;;;5110834;27;20663;-90
2023/08/22 08:20:10;;;;;;;0.00;0.00;;;21.30;99.90;;;;;;5107766;28;20192;-90
2023/08/22 08:22:36;;;;;;;0.00;0.00;;;21.00;99.90;;;;;;5108729;28;20212;-88
2023/08/22 08:25:03;;;;;;;0.00;0.00;;;21.10;99.90;;;;;;5104932;28;20506;-89
2023/08/22 08:27:28;;;;;;;0.00;0.00;;;21.30;99.90;;;;;;5103072;27;20185;-89
2023/08/22 08:29:54;;;;;;;0.00;0.00;;;21.40;99.90;;;;;;5105201;27;20483;-89
2023/08/22 08:32:19;;;;;;;0.00;0.00;;;21.70;99.90;;;;;;5105069;28;20211;-89
2023/08/22 08:34:46;;;;;;;0.00;0.00;;;21.80;99.90;;;;;;5106159;28;20200;-90
2023/08/22 08:37:12;;;;;;;0.00;0.00;;;22.00;99.90;;;;;;5093578;28;20441;-89
2023/08/22 08:39:37;;;;;;;0.00;0.00;;;22.10;99.90;;;;;;5106401;28;21668;-90
2023/08/22 08:42:12;;;;;;;0.00;0.00;;;21.70;99.90;;;;;;5101401;28;20639;-88
2023/08/22 08:44:38;;;;;;;0.00;0.00;;;22.00;99.90;;;;;;5099628;28;20260;-88
2023/08/22 08:47:07;;;;;;;0.00;0.00;;;22.30;99.90;;;;;;5101431;28;20458;-88
2023/08/22 08:49:34;;;;;;;0.00;0.00;;;22.30;99.90;;;;;;5099466;28;20519;-88
2023/08/22 08:52:07;;;;;;;0.00;0.00;;;22.60;99.90;;;;;;5103635;28;20488;-88
2023/08/22 08:54:33;;;;;;;0.00;0.00;;;22.40;99.90;;;;;;5102216;28;20427;-90
2023/08/22 08:56:59;;;;;;;0.00;0.00;;;22.80;99.90;;;;;;5085027;28;20450;-88
2023/08/22 08:59:25;;;;;;;0.00;0.00;;;22.90;99.90;;;;;;5116638;28;20425;-89
2023/08/22 09:01:53;;;;;;;0.00;0.00;;;22.70;99.90;;;;;;5104320;28;20961;-89
2023/08/22 09:04:20;;;;;;;0.00;0.00;;;23.00;99.90;;;;;;5104338;28;21030;-90
2023/08/22 09:06:46;;;;;;;0.00;0.00;;;22.90;99.90;;;;;;5104763;28;20528;-89
2023/08/22 09:09:13;;;;;;;0.00;0.00;;;23.10;99.90;;;;;;5107189;28;20438;-91
2023/08/22 09:11:44;;;;;;;0.00;0.00;;;23.30;99.90;;;;;;5109419;28;20530;-91
2023/08/22 09:14:10;;;;;;;0.00;0.00;;;23.30;99.90;;;;;;5114451;28;20453;-90
2023/08/22 09:16:36;;;;;;;0.00;0.00;;;23.20;99.90;;;;;;5096919;28;20533;-88
2023/08/22 09:19:02;;;;;;;0.00;0.00;;;23.60;99.90;;;;;;5115524;27;20450;-91
2023/08/22 09:21:29;;;;;;;0.00;0.00;;;23.70;99.90;;;;;;5094099;28;20441;-87
2023/08/22 09:24:08;;;;;;;0.00;0.00;;;23.90;99.90;;;;;;5098963;27;20797;-88
2023/08/22 09:26:34;;;;;;;0.00;0.00;;;23.70;99.90;;;;;;5113820;27;20522;-88
2023/08/22 09:29:07;;;;;;;0.00;0.00;;;23.50;99.90;;;;;;5111030;27;20437;-87
2023/08/22 09:31:35;;;;;;;0.00;0.00;;;23.60;99.90;;;;;;5110207;27;20446;-89
2023/08/22 09:34:09;;;;;;;0.00;0.00;;;23.90;99.90;;;;;;5112884;28;20450;-89
2023/08/22 09:36:45;;;;;;;0.00;0.00;;;24.40;99.90;;;;;;5114460;27;20434;-87
2023/08/22 09:39:13;;;;;;;0.00;0.00;;;24.60;99.90;;;;;;5114439;27;20441;-87
2023/08/22 09:41:39;;;;;;;0.00;0.00;;;24.70;99.90;;;;;;5092154;28;20960;-88
2023/08/22 09:44:06;;;;;;;0.00;0.00;;;25.00;99.90;;;;;;5110693;27;20443;-88
2023/08/22 09:46:31;;;;;;;0.00;0.00;;;24.80;99.90;;;;;;5106729;28;20442;-88
2023/08/22 09:49:00;;;;;;;0.00;0.00;;;25.20;99.90;;;;;;5105521;27;20502;-88
2023/08/22 09:51:25;;;;;;;0.00;0.00;;;25.10;99.90;;;;;;5107858;28;20180;-89
2023/08/22 09:53:59;;;;;;;0.00;0.00;;;25.10;99.90;;;;;;5121114;27;20485;-90
2023/08/22 09:56:26;;;;;;;0.00;0.00;;;25.00;99.90;;;;;;5117156;27;20210;-89
2023/08/22 09:58:55;;;;;;;0.00;0.00;;;25.50;99.90;;;;;;5093432;28;21010;-91
2023/08/22 10:01:22;;;;;;;0.00;0.00;;;25.50;99.90;;;;;;5095012;28;20502;-88
2023/08/22 10:03:49;;;;;;;0.00;0.00;;;25.40;99.90;;;;;;5093313;28;20485;-89
2023/08/22 10:06:15;;;;;;;0.00;0.00;;;25.70;99.90;;;;;;5110554;28;20458;-89
2023/08/22 10:08:42;;;;;;;0.00;0.00;;;26.00;99.90;;;;;;5112572;28;22144;-89
2023/08/22 10:11:11;;;;;;;0.00;0.00;;;26.30;99.90;;;;;;5109819;27;20191;-90
2023/08/22 10:13:37;;;;;;;0.00;0.00;;;26.60;99.90;;;;;;5100292;28;20481;-89
2023/08/22 10:16:03;;;;;;;0.00;0.00;;;27.00;99.90;;;;;;5110893;27;21292;-90
2023/08/22 10:18:29;;;;;;;0.00;0.00;;;26.80;99.90;;;;;;5120496;27;20434;-89
2023/08/22 10:20:55;;;;;;;0.00;0.00;;;26.50;99.90;;;;;;5103675;27;20525;-89
2023/08/22 10:23:52;;;;;;;0.00;0.00;;;26.80;99.90;;;;;;5095860;27;20609;-90
2023/08/22 10:26:22;;;;;;;0.00;0.00;;;27.20;99.90;;;;;;5107304;28;20434;-90
2023/08/22 10:29:19;;;;;;;0.00;0.00;;;26.90;99.90;;;;;;5089200;28;20446;-90
2023/08/22 10:32:18;;;;;;;0.00;0.00;;;26.80;99.90;;;;;;5103935;28;20445;-90
2023/08/22 10:34:44;;;;;;;0.00;0.00;;;27.60;99.90;;;;;;5095380;28;20888;-90
2023/08/22 10:37:22;;;;;;;0.00;0.00;;;26.70;99.90;;;;;;5108524;28;20530;-90
2023/08/22 10:39:49;;;;;;;0.00;0.00;;;26.80;99.90;;;;;;5074105;28;20197;-90
2023/08/22 10:42:21;;;;;;;0.00;0.00;;;27.30;99.90;;;;;;5103541;28;20489;-90
2023/08/22 10:44:50;;;;;;;0.00;0.00;;;26.40;99.90;;;;;;5090866;28;20486;-89
2023/08/22 10:47:27;;;;;;;0.00;0.00;;;26.90;99.90;;;;;;5088871;27;20807;-86
2023/08/22 10:50:00;;;;;;;0.00;0.00;;;27.70;99.90;;;;;;5094257;27;20447;-86
2023/08/22 10:52:26;;;;;;;0.00;0.00;;;28.00;99.90;;;;;;5111125;27;20516;-87
2023/08/22 10:54:57;;;;;;;0.00;0.00;;;27.40;99.90;;;;;;5101551;27;20823;-88
2023/08/22 10:57:24;;;;;;;0.00;0.00;;;27.90;99.90;;;;;;5111438;27;21403;-87
2023/08/22 10:59:58;;;;;;;0.00;0.00;;;28.70;99.90;;;;;;5111785;27;20470;-89
2023/08/22 11:02:32;;;;;;;0.00;0.00;;;29.00;99.90;;;;;;5109284;27;20499;-89
2023/08/22 11:05:00;;;;;;;0.00;0.00;;;29.20;99.90;;;;;;5111274;27;20502;-87
2023/08/22 11:07:26;;;;;;;0.00;0.00;;;29.20;99.90;;;;;;5103551;28;20458;-90
2023/08/22 11:09:54;;;;;;;0.00;0.00;;;28.90;99.90;;;;;;5102053;28;20453;-90
2023/08/22 11:12:24;;;;;;;0.00;0.00;;;28.30;99.90;;;;;;5111321;27;20477;-88
2023/08/22 11:14:51;;;;;;;0.00;0.00;;;28.10;99.90;;;;;;5108677;27;20532;-87
2023/08/22 11:17:19;;;;;;;0.00;0.00;;;28.80;99.90;;;;;;5110487;28;20438;-91
2023/08/22 11:19:45;;;;;;;0.00;0.00;;;28.40;99.90;;;;;;5111829;27;20539;-90
2023/08/22 11:22:11;;;;;;;0.00;0.00;;;29.20;99.90;;;;;;5114431;27;20454;-88
2023/08/22 11:24:40;;;;;;;0.00;0.00;;;28.90;99.90;;;;;;5109134;27;21052;-88
2023/08/22 11:27:06;;;;;;;0.00;0.00;;;29.20;99.90;;;;;;5108757;27;20273;-89
2023/08/22 11:29:50;;;;;;;0.00;0.00;;;29.10;99.90;;;;;;5122653;27;21044;-88
2023/08/22 11:32:22;;;;;;;0.00;0.00;;;29.40;99.90;;;;;;5090938;28;20303;-90
2023/08/22 11:34:50;;;;;;;0.00;0.00;;;29.90;99.90;;;;;;5093466;28;20540;-86
2023/08/22 11:37:19;;;;;;;0.00;0.00;;;30.70;99.90;;;;;;5092572;28;20445;-91
2023/08/22 11:39:47;;;;;;;0.00;0.00;;;30.50;99.90;;;;;;5093661;28;20479;-89
2023/08/22 11:42:14;;;;;;;0.00;0.00;;;30.00;99.90;;;;;;5112176;28;20453;-90
2023/08/22 11:44:59;;;;;;;0.00;0.00;;;29.90;99.90;;;;;;5112563;28;20798;-86
2023/08/22 11:47:41;;;;;;;0.00;0.00;;;30.30;99.90;;;;;;5110962;28;20823;-88
2023/08/22 11:50:15;;;;;;;0.00;0.00;;;30.70;99.90;;;;;;5111179;28;20430;-89
2023/08/22 11:52:48;;;;;;;0.00;0.00;;;30.00;99.90;;;;;;5113115;27;20476;-89
2023/08/22 11:55:22;;;;;;;0.00;0.00;;;30.00;99.90;;;;;;5106117;27;20440;-86
2023/08/22 11:57:48;;;;;;;0.00;0.00;;;29.40;99.90;;;;;;5127748;27;20423;-88
2023/08/22 12:00:15;;;;;;;0.00;0.00;;;29.70;99.90;;;;;;5107787;28;20484;-86
2023/08/22 12:02:50;;;;;;;0.00;0.00;;;29.40;99.90;;;;;;5095477;28;20189;-92
2023/08/22 12:05:48;;;;;;;0.00;0.00;;;30.30;99.90;;;;;;5105819;28;20425;-90
2023/08/22 12:08:13;;;;;;;0.00;0.00;;;30.30;99.90;;;;;;5108370;28;20438;-87
2023/08/22 12:10:46;;;;;;;0.00;0.00;;;30.40;99.90;;;;;;5108091;28;20902;-87
2023/08/22 12:13:21;;;;;;;0.00;0.00;;;30.60;99.90;;;;;;5109789;28;20306;-88
2023/08/22 12:15:48;;;;;;;0.00;0.00;;;30.70;99.90;;;;;;5109038;27;20432;-87
2023/08/22 12:18:14;;;;;;;0.00;0.00;;;31.00;99.90;;;;;;5111765;28;20988;-92
2023/08/22 12:20:41;;;;;;;0.00;0.00;;;31.40;99.90;;;;;;5110321;28;20422;-87
2023/08/22 12:23:08;;;;;;;0.00;0.00;;;31.30;99.90;;;;;;5110472;28;20957;-88
2023/08/22 12:25:34;;;;;;;0.00;0.00;;;31.40;99.90;;;;;;5108508;27;20941;-91
2023/08/22 12:28:03;;;;;;;0.00;0.00;;;31.40;99.90;;;;;;5109784;28;20437;-90
2023/08/22 12:30:33;;;;;;;0.00;0.00;;;30.80;99.90;;;;;;5110297;28;20473;-91
2023/08/22 12:33:01;;;;;;;0.00;0.00;;;31.90;99.90;;;;;;5093646;28;20477;-91
2023/08/22 12:35:26;;;;;;;0.00;0.00;;;31.70;99.90;;;;;;5113149;28;21197;-87
2023/08/22 12:37:52;;;;;;;0.00;0.00;;;32.40;99.90;;;;;;5111662;27;20449;-88
2023/08/22 12:40:18;;;;;;;0.00;0.00;;;32.50;99.90;;;;;;5117892;27;20182;-88
2023/08/22 12:42:45;;;;;;;0.00;0.00;;;31.60;99.90;;;;;;5083713;28;20192;-82
2023/08/22 12:45:10;;;;;;;0.00;0.00;;;31.60;99.90;;;;;;5087854;28;20313;-85
2023/08/22 12:47:37;;;;;;;0.00;0.00;;;32.50;99.90;;;;;;5103060;28;20537;-86